Time;durP1;ratioP1;P1;durP2;ratioP2;P2;SDS_P1;SDS_P2;PMS_P1;PMS_P2;Temp;Humidity;BMP_temperature;BMP_pressure;BME280_temperature;BME280_humidity;BME280_pressure;Samples;Min_cycle;Max_cycle;Signal;HPM_P1;HPM_P2
2021/01/22 00:01:17;;;;;;;1.47;1.40;;;10.10;85.90;;;;;;5081746;28;20187;-75
2021/01/22 00:03:43;;;;;;;1.50;1.40;;;10.20;85.10;;;;;;5082039;28;20220;-74
2021/01/22 00:06:11;;;;;;;1.73;1.57;;;10.30;86.10;;;;;;5083046;28;20188;-74
2021/01/22 00:08:40;;;;;;;1.70;1.60;;;10.30;86.60;;;;;;5085710;28;20828;-75
2021/01/22 00:11:06;;;;;;;1.70;1.17;;;10.20;87.00;;;;;;5076245;28;20688;-74
2021/01/22 00:13:32;;;;;;;1.63;1.30;;;10.20;87.30;;;;;;5081313;28;20222;-76
2021/01/22 00:15:58;;;;;;;1.40;1.30;;;10.10;87.50;;;;;;5081588;28;20214;-73
2021/01/22 00:18:33;;;;;;;1.27;1.17;;;10.10;87.50;;;;;;5082952;28;20233;-75
2021/01/22 00:21:02;;;;;;;1.33;1.27;;;10.00;88.30;;;;;;5083744;28;20190;-74
2021/01/22 00:23:30;;;;;;;1.50;1.40;;;10.00;87.50;;;;;;5079204;28;20217;-75
2021/01/22 00:25:57;;;;;;;1.70;1.60;;;10.00;88.10;;;;;;5080284;28;20706;-74
2021/01/22 00:28:23;;;;;;;1.97;1.77;;;10.00;88.60;;;;;;5080858;28;20672;-74
2021/01/22 00:30:48;;;;;;;1.47;1.37;;;9.90;89.10;;;;;;5076593;28;20691;-73
2021/01/22 00:33:14;;;;;;;1.50;1.40;;;9.90;89.20;;;;;;5079568;28;20222;-73
2021/01/22 00:35:39;;;;;;;1.70;1.60;;;9.90;89.40;;;;;;5078365;28;20186;-73
2021/01/22 00:38:05;;;;;;;1.73;1.40;;;9.80;90.00;;;;;;5068755;28;20217;-73
2021/01/22 00:40:31;;;;;;;1.97;1.57;;;9.70;90.40;;;;;;5074459;28;20197;-73
2021/01/22 00:42:56;;;;;;;1.60;1.50;;;9.60;90.50;;;;;;5075918;28;20214;-74
2021/01/22 00:45:22;;;;;;;1.53;1.43;;;9.50;90.70;;;;;;5081592;28;20182;-74
2021/01/22 00:47:48;;;;;;;1.57;1.47;;;9.50;90.60;;;;;;5081026;28;20660;-75
2021/01/22 00:50:13;;;;;;;3.43;1.60;;;9.50;90.60;;;;;;5080020;28;20254;-74
2021/01/22 00:52:39;;;;;;;1.20;1.20;;;9.40;90.40;;;;;;5080040;28;20194;-75
2021/01/22 00:55:06;;;;;;;1.37;1.30;;;9.50;90.00;;;;;;5083845;28;20218;-77
2021/01/22 00:57:32;;;;;;;1.50;1.40;;;9.60;88.80;;;;;;5073834;28;20237;-71
2021/01/22 00:59:57;;;;;;;1.50;1.40;;;9.60;88.60;;;;;;5077593;28;20190;-70
2021/01/22 01:02:23;;;;;;;1.43;1.33;;;9.50;88.80;;;;;;5081963;28;20209;-73
2021/01/22 01:04:48;;;;;;;1.50;1.40;;;9.50;89.50;;;;;;5087322;28;20265;-73
2021/01/22 01:07:14;;;;;;;1.73;1.30;;;9.40;89.70;;;;;;5079849;28;20584;-72
2021/01/22 01:09:40;;;;;;;1.27;1.23;;;9.40;89.70;;;;;;5078986;28;20194;-72
2021/01/22 01:12:06;;;;;;;1.20;1.20;;;9.40;89.20;;;;;;5081065;28;20189;-72
2021/01/22 01:14:32;;;;;;;1.67;1.20;;;9.40;89.40;;;;;;5083770;28;20196;-71
2021/01/22 01:16:57;;;;;;;1.73;1.63;;;9.40;89.20;;;;;;5075928;28;20190;-72
2021/01/22 01:19:23;;;;;;;1.20;1.10;;;9.40;89.40;;;;;;5078138;28;20252;-72
2021/01/22 01:21:49;;;;;;;1.10;1.10;;;9.50;89.00;;;;;;5083143;28;20198;-72
2021/01/22 01:24:14;;;;;;;1.00;1.00;;;9.50;88.90;;;;;;5079802;28;20823;-72
2021/01/22 01:26:40;;;;;;;1.10;1.10;;;9.50;89.10;;;;;;5082614;28;20175;-72
2021/01/22 01:29:05;;;;;;;1.67;1.20;;;9.40;89.10;;;;;;5074264;28;20210;-71
2021/01/22 01:31:31;;;;;;;1.23;1.13;;;9.50;88.70;;;;;;5084574;28;20189;-71
2021/01/22 01:33:57;;;;;;;1.20;1.10;;;9.50;88.80;;;;;;5083899;28;20205;-72
2021/01/22 01:36:22;;;;;;;1.27;1.27;;;9.40;88.90;;;;;;5079430;28;20634;-72
2021/01/22 01:38:48;;;;;;;1.40;1.30;;;9.60;87.80;;;;;;5081878;28;20256;-71
2021/01/22 01:41:14;;;;;;;1.10;1.10;;;9.60;88.00;;;;;;5082469;28;20210;-71
2021/01/22 01:43:40;;;;;;;1.30;1.20;;;9.60;88.20;;;;;;5088929;28;20224;-72
2021/01/22 01:46:05;;;;;;;1.10;1.10;;;9.50;88.40;;;;;;5083752;28;20179;-71
2021/01/22 01:48:31;;;;;;;1.30;1.30;;;9.50;88.40;;;;;;5078600;28;20704;-72
2021/01/22 01:50:57;;;;;;;1.33;1.23;;;9.60;87.70;;;;;;5080316;28;20214;-72
2021/01/22 01:53:24;;;;;;;2.30;1.30;;;9.60;87.90;;;;;;5081787;28;20676;-72
2021/01/22 01:55:50;;;;;;;1.30;1.30;;;9.50;88.30;;;;;;5079370;28;20214;-72
2021/01/22 01:58:16;;;;;;;1.40;1.30;;;9.50;88.30;;;;;;5075558;28;20215;-71
2021/01/22 02:00:42;;;;;;;1.20;1.07;;;9.50;87.90;;;;;;5079636;28;20612;-72
2021/01/22 02:03:07;;;;;;;1.10;1.10;;;9.60;87.10;;;;;;5077634;28;20309;-72
2021/01/22 02:05:33;;;;;;;1.30;1.20;;;9.60;86.80;;;;;;5073498;28;20709;-72
2021/01/22 02:07:59;;;;;;;1.43;1.33;;;9.60;86.20;;;;;;5078616;28;20225;-74
2021/01/22 02:10:25;;;;;;;1.20;1.10;;;9.70;85.60;;;;;;5077591;28;20273;-72
2021/01/22 02:12:52;;;;;;;1.67;1.37;;;9.70;84.40;;;;;;5082106;28;20356;-73
2021/01/22 02:15:19;;;;;;;3.80;1.20;;;9.80;84.30;;;;;;5084922;28;20197;-72
2021/01/22 02:17:46;;;;;;;1.67;1.10;;;9.80;83.80;;;;;;5083082;28;20216;-71
2021/01/22 02:20:20;;;;;;;1.53;1.20;;;9.90;83.10;;;;;;5079566;28;20224;-72
2021/01/22 02:22:46;;;;;;;1.90;1.27;;;9.90;83.70;;;;;;5084057;28;20596;-72
2021/01/22 02:25:13;;;;;;;1.80;1.03;;;9.90;83.00;;;;;;5082188;28;20182;-71
2021/01/22 02:27:39;;;;;;;2.10;1.40;;;9.90;82.40;;;;;;5085989;28;20206;-72
2021/01/22 02:30:06;;;;;;;4.33;1.50;;;9.90;82.10;;;;;;5080047;28;20191;-72
2021/01/22 02:32:33;;;;;;;2.27;1.40;;;9.90;82.00;;;;;;5082797;28;20232;-72
2021/01/22 02:35:06;;;;;;;2.50;1.50;;;10.00;81.20;;;;;;5080954;28;20194;-73
2021/01/22 02:37:33;;;;;;;3.33;1.40;;;10.00;81.00;;;;;;5077074;28;20593;-72
2021/01/22 02:40:05;;;;;;;5.93;1.77;;;10.00;80.50;;;;;;5076109;28;20183;-72
2021/01/22 02:42:31;;;;;;;3.40;1.53;;;10.00;80.20;;;;;;5078786;28;20337;-72
2021/01/22 02:44:57;;;;;;;2.87;1.40;;;10.00;80.60;;;;;;5077206;28;20568;-69
2021/01/22 02:47:25;;;;;;;4.00;1.50;;;10.00;80.20;;;;;;5076907;28;20187;-69
2021/01/22 02:49:52;;;;;;;4.27;1.53;;;9.90;80.50;;;;;;5075163;28;20191;-69
2021/01/22 02:52:18;;;;;;;4.03;1.47;;;9.90;80.50;;;;;;5078993;28;20237;-69
2021/01/22 02:54:48;;;;;;;1.97;1.40;;;9.90;80.80;;;;;;5073312;28;20183;-71
2021/01/22 02:58:11;;;;;;;2.70;1.40;;;9.90;81.20;;;;;;5078954;28;20266;-70
2021/01/22 03:00:44;;;;;;;3.10;1.50;;;9.90;80.80;;;;;;5041624;28;20203;-70
2021/01/22 03:03:21;;;;;;;2.23;1.50;;;9.90;80.20;;;;;;5042536;28;20219;-70
2021/01/22 03:05:48;;;;;;;3.87;1.63;;;9.80;80.90;;;;;;5037371;28;20215;-70
2021/01/22 03:08:18;;;;;;;1.77;1.40;;;9.80;80.80;;;;;;5040986;28;20552;-70
2021/01/22 03:10:46;;;;;;;3.73;1.50;;;9.70;81.30;;;;;;5040133;28;20215;-71
2021/01/22 03:13:13;;;;;;;3.23;1.70;;;9.60;81.30;;;;;;5041401;28;20192;-70
2021/01/22 03:15:39;;;;;;;4.20;1.50;;;9.60;80.90;;;;;;5033666;28;20198;-70
2021/01/22 03:18:16;;;;;;;2.30;1.70;;;9.70;80.20;;;;;;5043130;28;20222;-70
2021/01/22 03:20:46;;;;;;;3.47;1.40;;;9.60;80.80;;;;;;5037201;28;20588;-70
2021/01/22 03:23:14;;;;;;;4.73;1.63;;;9.60;80.70;;;;;;5040932;28;20246;-71
2021/01/22 03:25:41;;;;;;;3.33;1.60;;;9.60;80.70;;;;;;5037459;28;20189;-69
2021/01/22 03:28:07;;;;;;;4.90;1.60;;;9.60;80.20;;;;;;5038300;28;20202;-69
2021/01/22 03:30:33;;;;;;;2.30;1.50;;;9.50;80.60;;;;;;5037167;28;20196;-69
2021/01/22 03:32:58;;;;;;;5.20;1.80;;;9.50;80.80;;;;;;5043147;28;20214;-69
2021/01/22 03:35:25;;;;;;;4.40;1.47;;;9.40;80.50;;;;;;5038969;28;20655;-70
2021/01/22 03:37:51;;;;;;;5.70;1.93;;;9.50;80.10;;;;;;5070597;28;20639;-70
2021/01/22 03:40:16;;;;;;;3.40;1.63;;;9.50;79.90;;;;;;5079544;28;20285;-69
2021/01/22 03:42:48;;;;;;;3.27;1.87;;;9.50;79.40;;;;;;5078748;28;20210;-68
2021/01/22 03:45:14;;;;;;;3.40;1.80;;;9.50;79.60;;;;;;5078458;28;20179;-70
2021/01/22 03:47:40;;;;;;;6.10;1.63;;;9.50;79.40;;;;;;5074250;28;20202;-68
2021/01/22 03:50:07;;;;;;;3.10;1.70;;;9.40;80.00;;;;;;5074203;28;20548;-69
2021/01/22 03:52:33;;;;;;;5.90;1.90;;;9.40;79.60;;;;;;5074743;28;20194;-68
2021/01/22 03:54:58;;;;;;;3.90;1.67;;;9.50;78.90;;;;;;5076261;28;20181;-68
2021/01/22 03:57:24;;;;;;;3.53;1.70;;;9.60;78.60;;;;;;5077114;28;20193;-68
2021/01/22 03:59:50;;;;;;;4.43;1.87;;;9.60;78.30;;;;;;5084927;28;20182;-69
2021/01/22 04:02:17;;;;;;;3.13;1.60;;;9.60;78.60;;;;;;5075010;28;20198;-69
2021/01/22 04:04:43;;;;;;;5.00;1.97;;;9.60;78.10;;;;;;5077204;28;20747;-69
2021/01/22 04:07:10;;;;;;;3.37;1.50;;;9.50;78.00;;;;;;5079666;28;20186;-68
2021/01/22 04:09:35;;;;;;;4.53;1.97;;;9.50;77.60;;;;;;5074763;28;20266;-70
2021/01/22 04:12:01;;;;;;;3.33;1.70;;;9.50;77.40;;;;;;5079735;28;20268;-69
2021/01/22 04:14:27;;;;;;;2.73;1.77;;;9.50;77.10;;;;;;5076253;28;20182;-68
2021/01/22 04:16:56;;;;;;;3.17;2.20;;;9.50;76.80;;;;;;5075403;28;20179;-68
2021/01/22 04:19:23;;;;;;;3.50;2.13;;;9.50;77.90;;;;;;5080814;28;20201;-69
2021/01/22 04:21:49;;;;;;;1.80;1.70;;;9.50;77.00;;;;;;5088330;28;20289;-68
2021/01/22 04:24:15;;;;;;;5.20;1.93;;;9.40;77.00;;;;;;5082039;28;20305;-70
2021/01/22 04:26:41;;;;;;;3.43;1.90;;;9.40;77.30;;;;;;5080748;28;20259;-69
2021/01/22 04:29:07;;;;;;;3.60;1.97;;;9.30;77.50;;;;;;5079394;28;20687;-69
2021/01/22 04:31:33;;;;;;;6.50;1.57;;;9.40;77.00;;;;;;5086254;28;20174;-69
2021/01/22 04:33:59;;;;;;;2.37;1.67;;;9.40;77.50;;;;;;5079901;28;20197;-69
2021/01/22 04:36:24;;;;;;;3.43;1.83;;;9.40;77.00;;;;;;5076210;28;20205;-70
2021/01/22 04:38:50;;;;;;;3.73;1.77;;;9.30;77.20;;;;;;5079699;28;20205;-70
2021/01/22 04:41:16;;;;;;;3.97;1.50;;;9.30;77.60;;;;;;5087213;28;20194;-71
2021/01/22 04:43:44;;;;;;;2.17;1.70;;;9.20;77.90;;;;;;5082217;28;20689;-69
2021/01/22 04:46:10;;;;;;;3.37;1.77;;;9.30;77.60;;;;;;5078132;28;20657;-69
2021/01/22 04:48:40;;;;;;;2.60;1.77;;;9.40;77.30;;;;;;5084987;28;20205;-69
2021/01/22 04:51:06;;;;;;;2.67;1.50;;;9.40;77.50;;;;;;5076306;28;20209;-69
2021/01/22 04:53:34;;;;;;;2.43;1.50;;;9.40;77.60;;;;;;5079767;28;20187;-70
2021/01/22 04:56:00;;;;;;;1.53;1.43;;;9.50;77.50;;;;;;5081266;28;20229;-70
2021/01/22 04:58:28;;;;;;;1.67;1.50;;;9.50;77.40;;;;;;5086647;28;20197;-69
2021/01/22 05:00:55;;;;;;;2.20;1.30;;;9.60;77.30;;;;;;5083128;28;20182;-70
2021/01/22 05:03:26;;;;;;;1.40;1.30;;;9.60;77.50;;;;;;5081864;28;20668;-70
2021/01/22 05:05:56;;;;;;;1.83;1.30;;;9.60;77.70;;;;;;5084038;28;20592;-70
2021/01/22 05:08:22;;;;;;;1.80;1.50;;;9.60;77.80;;;;;;5076103;28;20222;-70
2021/01/22 05:10:47;;;;;;;1.57;1.47;;;9.60;77.80;;;;;;5089345;28;20210;-70
2021/01/22 05:13:13;;;;;;;1.90;1.20;;;9.60;77.80;;;;;;5080516;28;20190;-70
2021/01/22 05:15:39;;;;;;;2.57;1.80;;;9.60;78.00;;;;;;5085807;28;20258;-70
2021/01/22 05:18:06;;;;;;;1.67;1.40;;;9.60;78.30;;;;;;5081723;28;20206;-71
2021/01/22 05:20:45;;;;;;;1.73;1.30;;;9.50;78.80;;;;;;5081395;28;20294;-71
2021/01/22 05:23:11;;;;;;;1.93;1.30;;;9.50;79.30;;;;;;5083712;28;20202;-70
2021/01/22 05:25:59;;;;;;;2.77;1.10;;;9.50;79.50;;;;;;5080507;28;20232;-70
2021/01/22 05:28:45;;;;;;;1.70;1.17;;;9.40;79.90;;;;;;5080546;28;20198;-70
2021/01/22 05:31:13;;;;;;;2.57;1.20;;;9.60;79.30;;;;;;5074173;28;20708;-72
2021/01/22 05:33:41;;;;;;;1.77;1.27;;;9.50;79.60;;;;;;5077413;28;20603;-72
2021/01/22 05:36:30;;;;;;;1.83;1.73;;;9.50;80.00;;;;;;5078808;28;20529;-72
2021/01/22 05:38:57;;;;;;;1.93;1.10;;;9.40;80.20;;;;;;5074862;28;20286;-68
2021/01/22 05:41:23;;;;;;;1.70;1.30;;;9.50;80.30;;;;;;5077324;28;20231;-69
2021/01/22 05:43:50;;;;;;;2.40;1.10;;;9.50;80.20;;;;;;5073147;28;20210;-69
2021/01/22 05:46:21;;;;;;;2.47;1.30;;;9.60;79.60;;;;;;5079500;28;20187;-70
2021/01/22 05:48:46;;;;;;;1.40;1.10;;;9.50;80.10;;;;;;5077994;28;20420;-70
2021/01/22 05:51:13;;;;;;;2.33;1.33;;;9.60;79.40;;;;;;5074741;28;20186;-69
2021/01/22 05:53:46;;;;;;;2.47;1.20;;;9.60;79.50;;;;;;5074985;28;20649;-73
2021/01/22 05:56:17;;;;;;;3.13;1.23;;;9.60;79.60;;;;;;5075487;28;20194;-70
2021/01/22 05:58:47;;;;;;;1.80;1.40;;;9.60;79.60;;;;;;5081743;28;20193;-69
2021/01/22 06:01:21;;;;;;;2.90;1.30;;;9.50;79.80;;;;;;5081365;28;20580;-70
2021/01/22 06:03:49;;;;;;;1.57;1.00;;;9.60;79.30;;;;;;5080679;28;20281;-71
2021/01/22 06:06:15;;;;;;;1.77;1.07;;;9.60;79.60;;;;;;5090453;28;20296;-70
2021/01/22 06:08:52;;;;;;;3.20;1.33;;;9.50;79.90;;;;;;5094085;28;20197;-70
2021/01/22 06:11:22;;;;;;;1.20;1.10;;;9.40;79.90;;;;;;5088859;28;20229;-71
2021/01/22 06:13:49;;;;;;;1.60;1.27;;;9.50;80.20;;;;;;5080813;28;20206;-70
2021/01/22 06:16:20;;;;;;;1.30;1.20;;;9.40;80.00;;;;;;5081386;28;20183;-70
2021/01/22 06:18:53;;;;;;;1.90;1.30;;;9.40;80.50;;;;;;5081769;28;20206;-71
2021/01/22 06:21:29;;;;;;;1.40;1.30;;;9.40;80.70;;;;;;5084683;28;20208;-71
2021/01/22 06:23:54;;;;;;;3.63;1.70;;;9.40;80.20;;;;;;5074596;28;20210;-70
2021/01/22 06:26:21;;;;;;;1.73;1.20;;;9.40;80.20;;;;;;5085678;28;20554;-71
2021/01/22 06:28:50;;;;;;;3.47;1.40;;;9.40;80.40;;;;;;5089319;28;20285;-69
2021/01/22 06:31:19;;;;;;;1.77;1.40;;;9.40;80.60;;;;;;5076364;28;20536;-70
2021/01/22 06:33:47;;;;;;;2.03;1.30;;;9.40;80.60;;;;;;5079307;28;20194;-71
2021/01/22 06:36:13;;;;;;;1.83;1.37;;;9.40;80.30;;;;;;5087972;28;20202;-70
2021/01/22 06:38:41;;;;;;;2.40;1.43;;;9.40;80.60;;;;;;5094129;28;20313;-70
2021/01/22 06:41:10;;;;;;;6.33;2.27;;;9.40;80.50;;;;;;5090470;28;20186;-70
2021/01/22 06:43:38;;;;;;;57.40;30.43;;;9.40;80.80;;;;;;5092164;28;20255;-74
2021/01/22 06:46:10;;;;;;;69.53;43.63;;;9.40;81.60;;;;;;5093607;28;20200;-76
2021/01/22 06:49:00;;;;;;;114.17;76.57;;;9.40;81.30;;;;;;5093620;28;20198;-75
2021/01/22 06:51:30;;;;;;;117.50;85.77;;;9.40;81.30;;;;;;5084866;28;20747;-70
2021/01/22 06:54:21;;;;;;;15.97;11.40;;;9.40;80.50;;;;;;5088078;28;20208;-68
2021/01/22 06:56:46;;;;;;;2.37;1.23;;;9.40;80.40;;;;;;5080393;28;20179;-71
2021/01/22 06:59:40;;;;;;;3.40;1.30;;;9.40;80.60;;;;;;5087368;28;20259;-71
2021/01/22 07:02:31;;;;;;;1.30;1.20;;;9.40;80.20;;;;;;5088010;28;20185;-70
2021/01/22 07:04:57;;;;;;;3.77;1.53;;;9.40;80.50;;;;;;5085179;28;20181;-70
2021/01/22 07:07:44;;;;;;;1.73;1.40;;;9.40;81.30;;;;;;5087334;28;20542;-69
2021/01/22 07:10:10;;;;;;;1.83;1.20;;;9.40;79.90;;;;;;5093801;28;20193;-70
2021/01/22 07:12:36;;;;;;;1.50;1.17;;;9.40;79.50;;;;;;5089633;28;20207;-69
2021/01/22 07:15:25;;;;;;;2.57;1.33;;;9.40;79.20;;;;;;5087444;28;20189;-70
2021/01/22 07:17:58;;;;;;;2.50;1.30;;;9.40;79.70;;;;;;5082730;28;20206;-70
2021/01/22 07:20:24;;;;;;;1.33;1.23;;;9.40;79.70;;;;;;5086484;28;20194;-78
2021/01/22 07:22:52;;;;;;;1.30;1.20;;;9.30;79.80;;;;;;5078370;28;20235;-77
2021/01/22 07:25:40;;;;;;;2.13;1.30;;;9.40;79.20;;;;;;5088725;28;20620;-76
2021/01/22 07:28:12;;;;;;;2.00;1.50;;;9.50;78.60;;;;;;5081788;28;20202;-74
2021/01/22 07:30:39;;;;;;;2.47;1.37;;;10.00;76.30;;;;;;5080241;28;20178;-75
2021/01/22 07:33:30;;;;;;;3.07;1.60;;;10.40;73.50;;;;;;5083721;28;20208;-72
2021/01/22 07:36:09;;;;;;;1.57;1.37;;;10.80;71.10;;;;;;5078435;28;20183;-72
2021/01/22 07:38:36;;;;;;;1.63;1.20;;;11.20;69.00;;;;;;5075693;28;20258;-73
2021/01/22 07:41:02;;;;;;;3.00;1.60;;;11.40;67.40;;;;;;5080190;28;20201;-71
2021/01/22 07:43:30;;;;;;;4.40;1.60;;;11.20;67.20;;;;;;5084533;28;20244;-71
2021/01/22 07:46:10;;;;;;;4.17;1.50;;;11.30;67.00;;;;;;5079984;28;20187;-73
2021/01/22 07:48:36;;;;;;;3.33;1.77;;;11.50;66.30;;;;;;5076973;28;20640;-73
2021/01/22 07:51:31;;;;;;;3.55;1.50;;;11.70;65.40;;;;;;5081965;28;20837;-73
2021/01/22 07:54:00;;;;;;;2.35;1.45;;;12.00;64.10;;;;;;5087648;28;20189;-73
2021/01/22 07:56:37;;;;;;;2.72;1.25;;;12.20;62.50;;;;;;5088462;28;20247;-73
2021/01/22 07:59:03;;;;;;;2.08;1.30;;;12.40;61.80;;;;;;5087743;28;20260;-72
2021/01/22 08:01:29;;;;;;;1.83;1.35;;;12.50;61.80;;;;;;5086889;28;20231;-74
2021/01/22 08:03:55;;;;;;;2.30;1.35;;;12.90;59.80;;;;;;5083723;28;20211;-72
2021/01/22 08:06:20;;;;;;;1.23;1.10;;;13.10;59.60;;;;;;5086489;28;20181;-73
2021/01/22 08:08:47;;;;;;;3.05;1.10;;;13.20;58.70;;;;;;5083236;28;20213;-73
2021/01/22 08:11:23;;;;;;;1.60;1.02;;;13.30;57.90;;;;;;5085631;28;20200;-71
2021/01/22 08:13:49;;;;;;;1.33;1.20;;;13.10;58.70;;;;;;5086352;28;20185;-71
2021/01/22 08:16:24;;;;;;;2.10;1.45;;;13.40;58.30;;;;;;5085129;28;20190;-74
2021/01/22 08:18:51;;;;;;;1.40;1.10;;;13.40;57.70;;;;;;5084061;28;20248;-73
2021/01/22 08:21:17;;;;;;;1.30;1.00;;;13.40;57.70;;;;;;5086313;28;20193;-73
2021/01/22 08:23:44;;;;;;;1.52;1.27;;;13.90;56.70;;;;;;5084680;28;20207;-73
2021/01/22 08:26:14;;;;;;;1.08;0.98;;;14.10;55.70;;;;;;5082244;28;20665;-73
2021/01/22 08:28:40;;;;;;;1.55;0.93;;;14.20;55.60;;;;;;5084445;28;20207;-73
2021/01/22 08:31:12;;;;;;;1.27;0.82;;;14.60;54.70;;;;;;5079356;28;20193;-73
2021/01/22 08:33:38;;;;;;;3.20;1.40;;;14.50;54.10;;;;;;5091498;28;20182;-73
2021/01/22 08:36:08;;;;;;;2.75;1.27;;;14.70;54.30;;;;;;5086592;28;20191;-74
2021/01/22 08:38:37;;;;;;;2.22;1.17;;;14.80;53.20;;;;;;5088143;28;20208;-74
2021/01/22 08:41:03;;;;;;;2.22;1.27;;;14.60;53.70;;;;;;5088826;28;20662;-74
2021/01/22 08:43:29;;;;;;;2.08;1.27;;;15.20;52.40;;;;;;5081771;28;20209;-72
2021/01/22 08:46:11;;;;;;;2.28;1.35;;;15.50;50.60;;;;;;5088154;28;20186;-74
2021/01/22 08:48:37;;;;;;;1.70;1.20;;;15.40;51.50;;;;;;5087053;28;20250;-73
2021/01/22 08:51:04;;;;;;;1.40;1.00;;;15.50;50.70;;;;;;5085807;28;20271;-73
2021/01/22 08:53:30;;;;;;;3.70;1.17;;;15.80;50.20;;;;;;5086279;28;20183;-73
2021/01/22 08:56:10;;;;;;;1.95;0.95;;;16.00;49.60;;;;;;5090099;28;20187;-73
2021/01/22 08:59:03;;;;;;;2.90;1.27;;;16.10;49.50;;;;;;5086315;28;20205;-74
2021/01/22 09:01:47;;;;;;;1.45;1.00;;;16.50;48.30;;;;;;5085879;28;20179;-73
2021/01/22 09:04:20;;;;;;;1.13;1.02;;;16.10;48.50;;;;;;5084954;28;20803;-73
2021/01/22 09:06:49;;;;;;;3.00;1.15;;;15.50;50.00;;;;;;5078951;28;20183;-73
2021/01/22 09:09:14;;;;;;;2.15;1.20;;;14.50;52.00;;;;;;5072710;28;20244;-72
2021/01/22 09:11:40;;;;;;;3.13;1.20;;;14.00;53.30;;;;;;5073800;28;20178;-73
2021/01/22 09:14:06;;;;;;;2.97;1.05;;;14.10;54.10;;;;;;5088509;28;20186;-72
2021/01/22 09:16:44;;;;;;;3.17;1.20;;;13.60;54.90;;;;;;5080905;28;20297;-72
2021/01/22 09:19:10;;;;;;;1.70;1.10;;;13.40;55.40;;;;;;5077829;28;20716;-72
2021/01/22 09:21:52;;;;;;;4.07;1.38;;;13.00;56.70;;;;;;5078073;28;20217;-71
2021/01/22 09:24:17;;;;;;;2.70;1.45;;;13.10;56.80;;;;;;5078720;28;20844;-72
2021/01/22 09:26:43;;;;;;;2.22;1.63;;;13.40;56.30;;;;;;5076218;28;20206;-72
2021/01/22 09:29:09;;;;;;;3.45;1.67;;;13.40;55.80;;;;;;5084804;28;20277;-72
2021/01/22 09:31:34;;;;;;;3.53;1.55;;;13.50;56.00;;;;;;5080211;28;20179;-72
2021/01/22 09:34:00;;;;;;;3.30;1.45;;;13.70;55.40;;;;;;5080173;28;20190;-71
2021/01/22 09:36:26;;;;;;;7.28;1.88;;;13.70;55.40;;;;;;5074760;28;20171;-71
2021/01/22 09:38:52;;;;;;;4.68;1.80;;;14.20;54.70;;;;;;5085069;28;20688;-72
2021/01/22 09:41:17;;;;;;;1.75;1.25;;;14.30;54.80;;;;;;5073410;28;20202;-71
2021/01/22 09:43:43;;;;;;;1.98;1.50;;;14.80;52.90;;;;;;5078277;28;20693;-73
2021/01/22 09:46:08;;;;;;;2.50;1.40;;;15.10;51.90;;;;;;5082270;28;20187;-71
2021/01/22 09:48:34;;;;;;;2.65;1.58;;;15.00;51.80;;;;;;5078600;28;20271;-75
2021/01/22 09:51:00;;;;;;;3.20;1.70;;;15.50;51.30;;;;;;5082037;28;20267;-72
2021/01/22 09:53:25;;;;;;;1.48;1.20;;;15.50;50.90;;;;;;5078720;28;20501;-72
2021/01/22 09:55:51;;;;;;;1.50;1.20;;;15.30;50.70;;;;;;5075679;28;20214;-73
2021/01/22 09:58:16;;;;;;;2.88;1.20;;;15.20;51.60;;;;;;5072802;28;20686;-73
2021/01/22 10:00:42;;;;;;;1.55;1.08;;;14.90;52.10;;;;;;5086077;28;20200;-72
2021/01/22 10:03:08;;;;;;;1.95;1.15;;;14.30;53.30;;;;;;5077380;28;20264;-73
2021/01/22 10:05:33;;;;;;;1.98;1.10;;;14.20;54.40;;;;;;5081381;28;20248;-72
2021/01/22 10:07:59;;;;;;;2.53;1.35;;;14.30;53.80;;;;;;5078366;28;20202;-73
2021/01/22 10:10:25;;;;;;;5.38;1.63;;;13.90;54.70;;;;;;5085005;28;20170;-72
2021/01/22 10:12:51;;;;;;;2.00;1.40;;;13.50;56.10;;;;;;5079196;28;20238;-73
2021/01/22 10:15:16;;;;;;;2.25;1.40;;;13.50;56.30;;;;;;5081912;28;20178;-72
2021/01/22 10:17:42;;;;;;;2.42;1.10;;;14.00;55.00;;;;;;5080666;28;20241;-72
2021/01/22 10:20:08;;;;;;;2.67;1.30;;;14.50;54.50;;;;;;5082242;28;20217;-72
2021/01/22 10:22:34;;;;;;;1.95;1.30;;;14.50;54.50;;;;;;5074879;28;20202;-72
2021/01/22 10:24:59;;;;;;;1.65;1.40;;;14.40;54.40;;;;;;5078446;28;20193;-73
2021/01/22 10:27:25;;;;;;;2.05;1.17;;;14.10;55.20;;;;;;5079943;28;20190;-71
2021/01/22 10:29:50;;;;;;;1.33;1.23;;;14.00;55.10;;;;;;5072579;28;20270;-74
2021/01/22 10:32:16;;;;;;;2.42;1.23;;;14.00;54.70;;;;;;5082134;28;20669;-72
2021/01/22 10:34:42;;;;;;;2.85;1.25;;;13.80;54.60;;;;;;5083192;28;20227;-72
2021/01/22 10:37:08;;;;;;;2.92;1.38;;;13.60;55.70;;;;;;5078017;28;20611;-72
2021/01/22 10:39:33;;;;;;;1.75;1.23;;;13.80;56.00;;;;;;5078734;28;20195;-72
2021/01/22 10:41:59;;;;;;;2.30;1.10;;;14.00;55.10;;;;;;5077652;28;20593;-73
2021/01/22 10:44:24;;;;;;;3.40;1.20;;;13.90;55.10;;;;;;5074249;28;20202;-73
2021/01/22 10:46:50;;;;;;;1.40;1.27;;;13.90;55.70;;;;;;5079617;28;20654;-73
2021/01/22 10:49:18;;;;;;;2.78;1.30;;;14.50;54.40;;;;;;5080925;28;20673;-73
2021/01/22 10:51:43;;;;;;;2.30;1.23;;;15.40;53.20;;;;;;5082948;28;20193;-73
2021/01/22 10:54:10;;;;;;;2.35;1.50;;;17.00;50.00;;;;;;5093130;28;20385;-72
2021/01/22 10:56:36;;;;;;;2.95;1.00;;;18.20;46.30;;;;;;5098062;28;20179;-73
2021/01/22 10:59:01;;;;;;;1.63;0.70;;;19.00;44.50;;;;;;5083305;28;20859;-75
2021/01/22 11:01:27;;;;;;;2.80;0.90;;;19.40;42.50;;;;;;5082413;28;20190;-73
2021/01/22 11:03:52;;;;;;;2.45;1.00;;;20.00;42.60;;;;;;5079625;28;20270;-73
2021/01/22 11:06:18;;;;;;;1.30;0.63;;;20.70;41.00;;;;;;5072465;28;20208;-72
2021/01/22 11:08:44;;;;;;;0.90;0.70;;;20.50;39.50;;;;;;5075815;28;20200;-69
2021/01/22 11:11:09;;;;;;;2.08;0.80;;;19.80;40.40;;;;;;5080236;28;20316;-69
2021/01/22 11:13:35;;;;;;;2.42;0.63;;;20.20;41.40;;;;;;5086721;28;20540;-70
2021/01/22 11:16:00;;;;;;;0.75;0.70;;;21.30;38.80;;;;;;5074414;28;20203;-71
2021/01/22 11:18:26;;;;;;;0.80;0.55;;;20.90;38.60;;;;;;5075347;28;20207;-71
2021/01/22 11:20:52;;;;;;;1.10;0.55;;;20.10;39.90;;;;;;5082282;28;20286;-71
2021/01/22 11:23:18;;;;;;;3.78;0.73;;;18.80;41.10;;;;;;5074347;28;20250;-72
2021/01/22 11:25:44;;;;;;;0.80;0.80;;;16.90;44.50;;;;;;5078846;28;20186;-72
2021/01/22 11:28:10;;;;;;;2.03;0.82;;;16.60;46.70;;;;;;5084903;28;20205;-72
2021/01/22 11:30:36;;;;;;;0.95;0.85;;;16.20;47.00;;;;;;5080845;28;20594;-71
2021/01/22 11:33:02;;;;;;;2.78;0.70;;;16.20;47.50;;;;;;5073209;28;20225;-72
2021/01/22 11:35:28;;;;;;;1.52;0.93;;;17.90;44.20;;;;;;5076134;28;20222;-72
2021/01/22 11:37:54;;;;;;;1.38;1.00;;;19.00;41.90;;;;;;5073803;28;20202;-72
2021/01/22 11:40:20;;;;;;;4.72;1.10;;;18.80;41.50;;;;;;5079076;28;20333;-71
2021/01/22 11:42:47;;;;;;;1.38;0.80;;;18.00;42.80;;;;;;5080065;28;20234;-71
2021/01/22 11:45:14;;;;;;;0.80;0.80;;;17.30;44.20;;;;;;5077315;28;20229;-71
2021/01/22 11:47:41;;;;;;;1.88;1.40;;;16.40;45.50;;;;;;5077792;28;20203;-71
2021/01/22 11:50:07;;;;;;;4.22;2.75;;;16.00;46.60;;;;;;5080767;28;20580;-71
2021/01/22 11:52:33;;;;;;;3.65;1.70;;;15.80;48.00;;;;;;5077266;28;20538;-73
2021/01/22 11:54:58;;;;;;;1.63;1.30;;;15.70;47.70;;;;;;5077244;28;20189;-72
2021/01/22 11:57:24;;;;;;;2.38;1.90;;;15.40;47.50;;;;;;5073795;28;20273;-73
2021/01/22 11:59:50;;;;;;;2.08;1.00;;;15.20;48.60;;;;;;5083393;28;20185;-71
2021/01/22 12:02:15;;;;;;;4.35;1.30;;;15.30;48.10;;;;;;5084918;28;20187;-73
2021/01/22 12:04:41;;;;;;;1.13;0.93;;;15.30;48.80;;;;;;5078134;28;20223;-71
2021/01/22 12:07:07;;;;;;;1.25;0.80;;;15.40;48.50;;;;;;5081973;28;20649;-71
2021/01/22 12:09:32;;;;;;;1.60;0.90;;;15.70;48.30;;;;;;5081794;28;20743;-73
2021/01/22 12:11:58;;;;;;;1.02;1.00;;;16.40;46.80;;;;;;5080927;28;20197;-72
2021/01/22 12:14:24;;;;;;;0.82;0.82;;;17.20;44.60;;;;;;5081429;28;20193;-72
2021/01/22 12:16:49;;;;;;;1.60;0.70;;;18.50;42.20;;;;;;5086799;28;20178;-72
2021/01/22 12:19:16;;;;;;;0.93;0.80;;;18.50;40.80;;;;;;5076438;28;20201;-73
2021/01/22 12:21:42;;;;;;;0.90;0.70;;;18.10;41.00;;;;;;5078952;28;20316;-73
2021/01/22 12:24:08;;;;;;;1.38;0.93;;;17.50;42.10;;;;;;5077065;28;20306;-74
2021/01/22 12:26:33;;;;;;;0.90;0.88;;;17.30;41.90;;;;;;5085485;28;20178;-72
2021/01/22 12:28:59;;;;;;;2.58;1.30;;;16.90;43.00;;;;;;5083517;28;20203;-73
2021/01/22 12:31:25;;;;;;;1.90;0.80;;;16.50;44.10;;;;;;5091544;28;20281;-72
2021/01/22 12:33:50;;;;;;;1.77;0.98;;;16.10;45.50;;;;;;5076838;28;20232;-72
2021/01/22 12:36:16;;;;;;;1.20;1.10;;;16.10;45.30;;;;;;5083218;28;20225;-71
2021/01/22 12:38:42;;;;;;;1.23;0.80;;;16.20;45.70;;;;;;5079168;28;20237;-71
2021/01/22 12:41:07;;;;;;;0.60;0.60;;;17.60;42.90;;;;;;5080596;28;20260;-72
2021/01/22 12:43:33;;;;;;;0.68;0.68;;;19.30;40.10;;;;;;5080294;28;20734;-72
2021/01/22 12:46:00;;;;;;;4.45;1.13;;;19.50;38.70;;;;;;5078068;28;20182;-71
2021/01/22 12:48:26;;;;;;;1.85;1.02;;;18.80;39.70;;;;;;5079543;28;20198;-71
2021/01/22 12:50:52;;;;;;;2.55;1.13;;;17.50;41.50;;;;;;5078642;28;20207;-71
2021/01/22 12:53:18;;;;;;;1.85;1.10;;;16.40;44.00;;;;;;5076861;28;20364;-71
2021/01/22 12:55:48;;;;;;;2.70;0.90;;;15.80;45.80;;;;;;5077281;28;20191;-71
2021/01/22 12:58:14;;;;;;;1.38;0.88;;;15.40;46.80;;;;;;5081031;28;20827;-72